Time;durP1;ratioP1;P1;durP2;ratioP2;P2;SDS_P1;SDS_P2;PMS_P1;PMS_P2;Temp;Humidity;BMP_temperature;BMP_pressure;BME280_temperature;BME280_humidity;BME280_pressure;Samples;Min_cycle;Max_cycle;Signal;HPM_P1;HPM_P2
2023/01/28 00:01:16;;;;;;;1.60;1.50;;;;;;;2.05;81.48;99242.50;4262038;33;34713;-73
2023/01/28 00:03:47;;;;;;;1.55;1.45;;;;;;;1.63;83.46;99245.84;4249345;33;35040;-81
2023/01/28 00:06:16;;;;;;;0.75;0.75;;;;;;;1.74;83.56;99255.50;4249339;33;35244;-71
2023/01/28 00:08:44;;;;;;;2.05;1.95;;;;;;;2.20;80.62;99254.78;4262109;33;33438;-81
2023/01/28 00:11:13;;;;;;;1.27;1.27;;;;;;;1.43;84.24;99262.44;4261857;33;33891;-75
2023/01/28 00:13:41;;;;;;;2.35;2.25;;;;;;;1.56;83.98;99256.78;4261986;33;35248;-81
2023/01/28 00:16:10;;;;;;;1.70;1.60;;;;;;;1.90;83.42;99255.84;4262048;33;35051;-81
2023/01/28 00:18:38;;;;;;;5.22;4.82;;;;;;;2.03;82.01;99256.13;4262286;33;34328;-81
2023/01/28 00:21:11;;;;;;;2.35;2.25;;;;;;;1.50;83.68;99260.06;4262016;33;34023;-72
2023/01/28 00:23:41;;;;;;;0.68;0.68;;;;;;;1.94;82.83;99258.50;4249202;33;35954;-81
2023/01/28 00:26:11;;;;;;;5.15;3.40;;;;;;;1.80;82.38;99260.75;4261753;33;34416;-82
2023/01/28 00:28:40;;;;;;;3.15;2.62;;;;;;;1.82;83.22;99269.37;4262018;33;32845;-72
2023/01/28 00:31:10;;;;;;;0.90;0.90;;;;;;;2.03;82.08;99266.41;4260678;33;33933;-81
2023/01/28 00:33:38;;;;;;;0.90;0.90;;;;;;;1.83;82.58;99266.81;4261901;33;35825;-81
2023/01/28 00:36:07;;;;;;;4.15;2.45;;;;;;;1.83;81.92;99260.81;4262070;33;35274;-73
2023/01/28 00:38:35;;;;;;;3.58;2.85;;;;;;;1.47;84.07;99267.69;4258505;33;33375;-72
2023/01/28 00:41:10;;;;;;;1.58;1.48;;;;;;;1.38;84.73;99271.72;4261854;33;34686;-76
2023/01/28 00:43:40;;;;;;;2.12;2.03;;;;;;;1.56;84.71;99272.19;4260706;33;34777;-81
2023/01/28 00:46:10;;;;;;;2.20;2.00;;;;;;;2.02;82.04;99272.38;4261796;33;34430;-81
2023/01/28 00:48:39;;;;;;;0.80;0.80;;;;;;;1.58;83.75;99273.09;4262095;33;33470;-81
2023/01/28 00:51:08;;;;;;;1.25;1.00;;;;;;;1.76;82.86;99274.34;4261617;33;33809;-82
2023/01/28 00:53:37;;;;;;;0.60;0.60;;;;;;;1.93;82.55;99278.19;4261706;33;35147;-71
2023/01/28 00:56:07;;;;;;;1.85;1.75;;;;;;;1.72;82.44;99280.25;4261682;33;35277;-81
2023/01/28 00:58:35;;;;;;;1.77;1.67;;;;;;;2.12;81.56;99279.47;4261699;33;33514;-73
2023/01/28 01:01:10;;;;;;;1.70;1.60;;;;;;;2.20;80.83;99282.19;4261778;33;34706;-78
2023/01/28 01:03:39;;;;;;;0.82;0.82;;;;;;;1.97;80.60;99286.81;4260747;33;35009;-82
2023/01/28 01:06:08;;;;;;;3.60;3.30;;;;;;;1.83;81.57;99281.38;4261582;33;34462;-82
2023/01/28 01:08:38;;;;;;;0.80;0.80;;;;;;;1.95;82.32;99281.66;4261655;33;34404;-75
2023/01/28 01:11:10;;;;;;;3.65;3.35;;;;;;;1.94;81.19;99285.06;4261867;33;34628;-82
2023/01/28 01:13:38;;;;;;;2.95;2.75;;;;;;;1.97;81.87;99287.69;4261517;33;35923;-72
2023/01/28 01:16:12;;;;;;;1.52;1.42;;;;;;;2.16;81.26;99277.84;4261534;33;35121;-82
2023/01/28 01:18:41;;;;;;;3.15;2.90;;;;;;;2.07;80.87;99281.94;4248905;33;34485;-82
2023/01/28 01:21:15;;;;;;;0.93;0.93;;;;;;;2.04;80.60;99284.41;4261599;33;33925;-82
2023/01/28 01:23:45;;;;;;;0.85;0.85;;;;;;;2.27;79.35;99281.50;4260495;33;35159;-71
2023/01/28 01:26:13;;;;;;;1.23;1.23;;;;;;;1.97;79.92;99285.13;4261761;33;34378;-72
2023/01/28 01:28:42;;;;;;;0.80;0.80;;;;;;;2.35;78.94;99282.53;4261446;33;33544;-72
2023/01/28 01:31:16;;;;;;;5.70;1.35;;;;;;;1.96;79.85;99280.81;4261424;33;33967;-82
2023/01/28 01:33:46;;;;;;;1.42;1.37;;;;;;;2.47;78.69;99277.66;4261537;33;35122;-71
2023/01/28 01:36:16;;;;;;;1.87;1.77;;;;;;;2.19;79.56;99280.44;4261440;33;34667;-82
2023/01/28 01:38:44;;;;;;;3.50;3.25;;;;;;;1.92;80.54;99284.13;4261245;33;33057;-71
2023/01/28 01:41:26;;;;;;;0.80;0.80;;;;;;;1.98;80.26;99286.84;4261215;33;34669;-78
2023/01/28 01:44:00;;;;;;;1.40;1.35;;;;;;;2.07;80.55;99287.06;4261313;33;35873;-71
2023/01/28 01:46:33;;;;;;;4.78;2.60;;;;;;;2.05;80.18;99288.72;4261262;33;34578;-72
2023/01/28 01:49:16;;;;;;;5.53;5.07;;;;;;;1.99;80.67;99291.16;4261360;33;33590;-81
2023/01/28 01:51:46;;;;;;;3.65;2.33;;;;;;;2.25;79.46;99289.16;4260133;33;34754;-81
2023/01/28 01:54:15;;;;;;;4.37;3.97;;;;;;;1.83;81.54;99291.63;4261443;33;35037;-71
2023/01/28 01:56:46;;;;;;;5.40;4.95;;;;;;;2.07;80.30;99296.47;4248401;33;35257;-80
2023/01/28 01:59:18;;;;;;;8.63;5.18;;;;;;;2.15;80.42;99288.94;4248829;33;33454;-75
2023/01/28 02:01:46;;;;;;;1.87;1.70;;;;;;;1.93;80.62;99297.88;4261094;33;33881;-80
2023/01/28 02:04:19;;;;;;;0.93;0.93;;;;;;;2.09;80.91;99299.94;4259905;33;35129;-80
2023/01/28 02:06:48;;;;;;;9.32;4.40;;;;;;;2.24;80.38;99301.97;4248290;33;34361;-81
2023/01/28 02:09:22;;;;;;;6.32;4.37;;;;;;;2.15;80.34;99294.06;4260000;33;33776;-72
2023/01/28 02:12:11;;;;;;;1.52;1.50;;;;;;;2.12;80.36;99299.13;4260927;33;34697;-81
2023/01/28 02:14:49;;;;;;;6.05;4.30;;;;;;;2.22;79.49;99295.94;4260362;33;35210;-80
2023/01/28 02:17:17;;;;;;;2.45;2.25;;;;;;;2.03;81.42;99294.66;4262724;33;34518;-73
2023/01/28 02:20:12;;;;;;;1.15;1.15;;;;;;;2.14;81.48;99297.50;4262934;33;33484;-80
2023/01/28 02:22:59;;;;;;;1.02;1.02;;;;;;;2.27;80.11;99289.19;4262661;33;33979;-80
2023/01/28 02:25:39;;;;;;;1.15;1.15;;;;;;;2.51;78.99;99294.00;4260972;33;35705;-73
2023/01/28 02:28:13;;;;;;;2.25;2.15;;;;;;;2.28;78.97;99296.09;4262449;33;34583;-70
2023/01/28 02:30:49;;;;;;;1.15;1.15;;;;;;;2.55;78.09;99290.66;4262270;33;33471;-69
2023/01/28 02:33:29;;;;;;;8.20;3.92;;;;;;;2.18;79.71;99284.72;4249831;33;34625;-71
2023/01/28 02:36:02;;;;;;;2.22;2.08;;;;;;;2.22;79.20;99296.81;4249548;33;35001;-70
2023/01/28 02:38:55;;;;;;;0.62;0.62;;;;;;;2.44;78.90;99281.88;4249565;33;34406;-81
2023/01/28 02:41:30;;;;;;;2.97;2.35;;;;;;;1.89;80.88;99284.94;4262273;33;33666;-70
2023/01/28 02:44:01;;;;;;;2.50;2.30;;;;;;;1.95;81.80;99296.19;4262585;33;34025;-80
2023/01/28 02:49:16;;;;;;;;;;;;;;;2.18;80.29;99286.44;4262498;33;34484;-70
2023/01/28 02:52:02;;;;;;;1.73;1.62;;;;;;;1.67;82.88;99286.13;4262213;33;34150;-74
2023/01/28 02:54:49;;;;;;;5.07;4.72;;;;;;;1.73;82.34;99289.69;4262280;33;34031;-73
2023/01/28 02:57:17;;;;;;;1.65;1.55;;;;;;;1.78;82.12;99288.09;4262153;33;35141;-70
2023/01/28 03:00:01;;;;;;;2.05;1.92;;;;;;;2.30;80.38;99278.13;4262158;33;34552;-74
2023/01/28 03:03:04;;;;;;;1.75;1.65;;;;;;;2.00;81.13;99287.75;4262329;33;34523;-74
2023/01/28 03:05:37;;;;;;;8.02;2.42;;;;;;;2.06;80.94;99285.31;4231597;33;34739;-80
2023/01/28 03:09:21;;;;;;;2.15;2.05;;;;;;;2.43;79.75;99280.97;4262531;33;35850;-78
2023/01/28 03:39:09;;;;;;;1.87;1.77;;;;;;;1.98;82.65;99292.00;4261961;33;34383;-72
2023/01/28 03:41:38;;;;;;;2.55;2.35;;;;;;;2.15;81.44;99289.78;4262071;33;35025;-69
2023/01/28 03:46:53;;;;;;;11.52;3.53;;;;;;;1.61;85.41;99303.09;4251384;33;34519;-71
2023/01/28 03:49:21;;;;;;;1.23;1.23;;;;;;;1.39;84.74;99299.13;4261915;33;33891;-72
2023/01/28 03:51:49;;;;;;;2.00;1.87;;;;;;;1.65;84.77;99295.50;4261966;33;35861;-71
2023/01/28 03:54:18;;;;;;;3.40;3.12;;;;;;;1.83;83.96;99297.63;4261853;33;35072;-70
2023/01/28 03:56:47;;;;;;;2.80;2.30;;;;;;;1.87;83.10;99293.44;4262063;33;33798;-71
2023/01/28 03:59:15;;;;;;;3.30;1.83;;;;;;;2.08;81.96;99304.22;4262056;33;34004;-79
2023/01/28 04:01:43;;;;;;;3.72;3.53;;;;;;;2.02;81.44;99304.06;4261924;33;35926;-74
2023/01/28 04:04:21;;;;;;;2.37;2.25;;;;;;;1.66;83.40;99304.94;4261978;33;34342;-74
2023/01/28 04:06:51;;;;;;;4.82;2.75;;;;;;;1.91;81.94;99300.41;4262051;33;34173;-70
2023/01/28 04:09:23;;;;;;;1.30;1.30;;;;;;;1.62;84.50;99313.38;4262161;33;33898;-70
2023/01/28 04:11:52;;;;;;;2.12;1.92;;;;;;;1.89;82.93;99302.06;4261784;33;35869;-70
2023/01/28 04:14:21;;;;;;;2.53;2.37;;;;;;;1.97;82.33;99303.09;4261866;33;35263;-78
2023/01/28 04:16:49;;;;;;;1.20;1.15;;;;;;;1.74;82.44;99310.25;4261859;33;34370;-72
2023/01/28 04:19:17;;;;;;;1.35;1.30;;;;;;;1.38;84.21;99294.81;4261954;33;33878;-70
2023/01/28 04:21:47;;;;;;;5.78;3.50;;;;;;;2.19;81.27;99306.13;4261818;33;35104;-71
2023/01/28 04:24:16;;;;;;;2.35;2.15;;;;;;;2.07;81.68;99310.19;4261892;33;34477;-71
2023/01/28 04:26:44;;;;;;;8.82;1.98;;;;;;;1.78;82.43;99311.19;4261678;33;33484;-70
2023/01/28 04:29:12;;;;;;;2.80;2.22;;;;;;;2.24;80.82;99308.00;4262035;33;34716;-70
2023/01/28 04:31:40;;;;;;;2.90;1.98;;;;;;;1.58;83.57;99309.00;4261545;33;34914;-70
2023/01/28 04:34:09;;;;;;;9.40;3.58;;;;;;;1.88;82.40;99311.44;4262007;33;34360;-70
2023/01/28 04:36:37;;;;;;;1.02;1.02;;;;;;;1.59;83.51;99313.31;4261805;33;34304;-70
2023/01/28 04:39:05;;;;;;;9.05;3.47;;;;;;;1.48;84.42;99314.75;4261535;33;33854;-72
2023/01/28 04:41:34;;;;;;;3.65;3.35;;;;;;;1.79;83.09;99318.94;4261474;33;34955;-69
2023/01/28 04:44:03;;;;;;;1.85;1.70;;;;;;;1.94;81.90;99309.84;4261586;33;35204;-69
2023/01/28 04:46:31;;;;;;;0.80;0.80;;;;;;;1.92;81.70;99314.94;4261542;33;34372;-73
2023/01/28 04:49:00;;;;;;;1.08;1.08;;;;;;;1.62;83.37;99318.50;4261582;33;33832;-70
2023/01/28 04:51:29;;;;;;;3.35;1.55;;;;;;;1.75;82.29;99313.69;4261496;33;35805;-71
2023/01/28 04:53:57;;;;;;;0.75;0.75;;;;;;;1.37;83.76;99311.91;4261908;33;35201;-76
2023/01/28 04:56:25;;;;;;;2.47;2.28;;;;;;;1.38;83.70;99317.88;4261546;33;33466;-76
2023/01/28 04:58:54;;;;;;;2.05;1.95;;;;;;;1.52;83.35;99322.56;4261645;33;34754;-70
2023/01/28 05:01:23;;;;;;;0.80;0.80;;;;;;;1.36;84.36;99314.44;4261410;33;34950;-70
2023/01/28 05:03:52;;;;;;;0.95;0.95;;;;;;;1.49;84.12;99316.50;4261573;33;35191;-79
2023/01/28 05:06:21;;;;;;;2.12;2.03;;;;;;;1.72;83.80;99323.91;4261593;33;34276;-70
2023/01/28 05:08:50;;;;;;;2.25;2.15;;;;;;;1.41;83.66;99325.69;4261473;33;34665;-75
2023/01/28 05:11:18;;;;;;;3.05;1.65;;;;;;;1.58;83.73;99331.25;4261513;33;35125;-71
2023/01/28 05:13:47;;;;;;;0.90;0.90;;;;;;;1.92;81.92;99332.94;4261698;33;34580;-80
2023/01/28 05:16:15;;;;;;;1.52;1.50;;;;;;;1.58;83.17;99336.38;4261715;33;33600;-76
2023/01/28 05:18:43;;;;;;;1.95;1.85;;;;;;;1.73;83.77;99333.31;4261516;33;34612;-72
2023/01/28 05:21:12;;;;;;;2.47;2.05;;;;;;;1.52;84.50;99337.97;4261800;33;35912;-78
2023/01/28 05:23:40;;;;;;;5.10;4.32;;;;;;;1.53;84.66;99343.94;4261510;33;35054;-79
2023/01/28 05:26:09;;;;;;;3.40;3.20;;;;;;;1.58;84.22;99337.25;4262096;33;34066;-78
2023/01/28 05:28:38;;;;;;;4.47;4.18;;;;;;;1.62;83.92;99351.00;4261487;33;33568;-80
2023/01/28 05:31:09;;;;;;;15.80;12.25;;;;;;;1.85;82.68;99346.44;4259903;33;35901;-79
2023/01/28 05:33:38;;;;;;;16.48;14.93;;;;;;;1.63;84.67;99342.50;4248677;33;34732;-71
2023/01/28 05:36:07;;;;;;;2.22;2.12;;;;;;;1.48;85.53;99348.09;4261188;33;34684;-80
2023/01/28 05:38:35;;;;;;;16.95;15.60;;;;;;;1.46;84.84;99348.06;4261321;33;33929;-79
2023/01/28 05:41:04;;;;;;;10.95;10.00;;;;;;;1.56;85.38;99343.19;4261573;33;35005;-72
2023/01/28 05:43:32;;;;;;;1.70;1.62;;;;;;;1.32;85.90;99350.28;4261596;33;35254;-79
2023/01/28 05:46:00;;;;;;;9.00;6.85;;;;;;;1.51;85.00;99353.31;4261566;33;33498;-77
2023/01/28 05:48:29;;;;;;;4.45;4.05;;;;;;;1.50;85.21;99351.56;4261499;33;33939;-76
2023/01/28 05:50:57;;;;;;;4.20;3.17;;;;;;;1.43;85.20;99357.38;4260847;33;35071;-72
2023/01/28 05:53:28;;;;;;;1.60;1.52;;;;;;;1.73;83.68;99351.28;4261523;33;35157;-79
2023/01/28 05:55:56;;;;;;;1.00;1.00;;;;;;;1.47;84.42;99356.62;4260402;33;32376;-72
2023/01/28 05:58:27;;;;;;;2.62;2.35;;;;;;;1.36;85.93;99365.72;4261091;33;33886;-73
2023/01/28 06:00:57;;;;;;;1.92;1.55;;;;;;;1.63;85.07;99370.72;4261165;33;34764;-72
2023/01/28 06:03:27;;;;;;;0.70;0.70;;;;;;;1.24;86.64;99362.03;4261246;33;35102;-79
2023/01/28 06:05:55;;;;;;;1.90;1.77;;;;;;;1.44;85.14;99366.81;4248320;33;33504;-72
2023/01/28 06:08:23;;;;;;;0.90;0.90;;;;;;;1.51;85.33;99373.84;4261118;33;33922;-73
2023/01/28 06:10:52;;;;;;;1.30;1.30;;;;;;;1.61;85.25;99375.81;4261051;33;35124;-72
2023/01/28 06:13:21;;;;;;;0.70;0.70;;;;;;;1.29;85.76;99368.16;4259755;33;35230;-73
2023/01/28 06:15:51;;;;;;;2.40;2.28;;;;;;;1.44;85.92;99369.37;4248074;33;31958;-76
2023/01/28 06:18:20;;;;;;;2.37;2.17;;;;;;;1.52;84.96;99371.31;4248479;33;33738;-70
2023/01/28 06:20:49;;;;;;;0.90;0.90;;;;;;;1.58;85.53;99378.31;4248417;33;35313;-72
2023/01/28 06:23:17;;;;;;;2.30;2.10;;;;;;;1.51;85.54;99373.84;4248067;33;34416;-74
2023/01/28 06:25:45;;;;;;;1.67;1.58;;;;;;;1.56;85.25;99377.41;4261099;33;33640;-72
2023/01/28 06:28:14;;;;;;;0.85;0.85;;;;;;;1.61;84.78;99377.53;4261162;33;33831;-71
2023/01/28 06:30:43;;;;;;;1.25;1.25;;;;;;;1.27;87.05;99387.75;4260667;33;34680;-72
2023/01/28 06:33:11;;;;;;;0.93;0.90;;;;;;;1.64;84.88;99387.84;4259482;33;34457;-71
2023/01/28 06:35:39;;;;;;;4.47;3.20;;;;;;;1.77;84.55;99391.63;4260720;33;33625;-77
2023/01/28 06:38:07;;;;;;;1.73;1.65;;;;;;;1.63;85.03;99394.69;4260439;33;33828;-72
2023/01/28 06:40:36;;;;;;;0.77;0.77;;;;;;;1.44;85.59;99392.47;4260730;33;35030;-71
2023/01/28 06:43:05;;;;;;;1.27;1.20;;;;;;;1.23;87.12;99397.88;4260280;33;35109;-72
2023/01/28 06:45:33;;;;;;;3.97;2.33;;;;;;;1.41;86.88;99400.06;4260575;33;33850;-74
2023/01/28 06:48:01;;;;;;;4.78;2.37;;;;;;;1.40;86.47;99408.63;4260650;33;33625;-72
2023/01/28 06:50:30;;;;;;;2.55;2.35;;;;;;;1.79;85.14;99408.78;4248043;33;35018;-79
2023/01/28 06:52:59;;;;;;;3.67;3.00;;;;;;;1.58;85.69;99413.38;4247718;33;35280;-81
2023/01/28 06:55:27;;;;;;;13.32;11.98;;;;;;;1.65;85.60;99416.13;4260726;33;34368;-81
2023/01/28 06:57:55;;;;;;;10.15;9.10;;;;;;;1.35;85.81;99423.03;4260351;33;34610;-79
2023/01/28 07:00:24;;;;;;;3.33;3.12;;;;;;;1.75;84.63;99429.19;4260286;33;34435;-75
2023/01/28 07:02:55;;;;;;;10.45;7.45;;;;;;;1.02;87.70;99426.34;4261299;33;35895;-71
2023/01/28 07:05:25;;;;;;;12.77;8.63;;;;;;;1.15;88.08;99423.34;4262713;33;34292;-71
2023/01/28 07:07:53;;;;;;;3.60;2.78;;;;;;;1.44;85.89;99430.97;4262620;33;33849;-75
2023/01/28 07:10:21;;;;;;;2.47;2.12;;;;;;;1.73;85.31;99433.44;4262742;33;35877;-70
2023/01/28 07:12:49;;;;;;;2.47;2.12;;;;;;;1.79;85.12;99433.59;4262454;33;34498;-73
2023/01/28 07:15:17;;;;;;;2.25;2.15;;;;;;;1.94;83.73;99428.87;4262526;33;33520;-72
2023/01/28 07:17:45;;;;;;;9.63;5.37;;;;;;;1.88;83.69;99442.41;4262066;33;33802;-70
2023/01/28 07:20:15;;;;;;;2.87;2.70;;;;;;;1.67;85.42;99445.25;4262419;33;34949;-71
2023/01/28 07:22:44;;;;;;;1.77;1.67;;;;;;;1.98;84.46;99440.09;4261338;33;34098;-73
2023/01/28 07:25:13;;;;;;;1.87;1.77;;;;;;;1.86;84.12;99440.62;4249828;33;33557;-72
2023/01/28 07:27:47;;;;;;;3.20;2.62;;;;;;;1.87;84.32;99447.47;4262584;33;34622;-72
2023/01/28 07:30:16;;;;;;;2.42;2.33;;;;;;;1.64;85.41;99454.59;4250037;33;34971;-71
2023/01/28 07:32:45;;;;;;;1.08;1.08;;;;;;;1.75;84.43;99457.44;4226923;33;33887;-75
2023/01/28 07:35:14;;;;;;;4.68;4.25;;;;;;;1.72;84.68;99452.25;4262294;33;34124;-72
2023/01/28 07:37:52;;;;;;;2.60;2.40;;;;;;;1.50;85.91;99449.97;4262435;33;33884;-73
2023/01/28 07:40:22;;;;;;;1.85;1.77;;;;;;;1.37;85.95;99452.16;4249859;33;34962;-72
2023/01/28 07:42:51;;;;;;;3.37;3.08;;;;;;;1.10;87.16;99465.94;4238305;33;34625;-72
2023/01/28 07:45:23;;;;;;;1.05;1.05;;;;;;;1.20;86.62;99462.81;4260970;33;31503;-82
2023/01/28 07:47:58;;;;;;;5.65;3.90;;;;;;;1.18;86.76;99459.31;4262143;33;33915;-71
2023/01/28 07:50:28;;;;;;;0.70;0.70;;;;;;;1.32;86.92;99463.16;4248997;33;35903;-85
2023/01/28 07:52:56;;;;;;;1.25;1.25;;;;;;;1.30;86.28;99459.66;4249228;33;35302;-85
2023/01/28 07:55:25;;;;;;;1.00;1.00;;;;;;;1.03;88.27;99453.75;4249666;33;33314;-82
2023/01/28 07:57:59;;;;;;;2.40;2.20;;;;;;;1.66;85.58;99458.94;4250312;33;33987;-85
2023/01/28 08:00:29;;;;;;;1.92;1.83;;;;;;;1.42;85.33;99453.16;4262394;33;36032;-73
2023/01/28 08:03:00;;;;;;;16.40;4.30;;;;;;;1.30;86.53;99464.78;4249410;33;33533;-82
2023/01/28 08:05:38;;;;;;;3.30;3.00;;;;;;;1.56;86.84;99462.09;4249198;33;33102;-72
2023/01/28 08:08:08;;;;;;;1.62;1.52;;;;;;;1.48;87.50;99461.88;4260686;33;33818;-81
2023/01/28 08:10:37;;;;;;;7.50;2.78;;;;;;;1.70;85.97;99458.19;4248156;33;35342;-77
2023/01/28 08:13:06;;;;;;;3.20;2.92;;;;;;;1.35;87.75;99467.50;4249225;33;35076;-76
2023/01/28 08:15:35;;;;;;;1.15;1.15;;;;;;;1.50;86.93;99477.31;4237783;33;34271;-72
2023/01/28 08:18:04;;;;;;;2.95;2.80;;;;;;;1.70;87.12;99472.72;4249372;33;33960;-72
2023/01/28 08:20:33;;;;;;;1.25;1.25;;;;;;;1.85;85.60;99474.81;4261820;33;35226;-73
2023/01/28 08:23:15;;;;;;;6.22;5.75;;;;;;;1.89;85.45;99476.66;4249232;33;34480;-87
2023/01/28 08:25:44;;;;;;;1.42;1.42;;;;;;;1.67;85.48;99476.06;4262028;33;33535;-72
2023/01/28 08:28:13;;;;;;;1.75;1.50;;;;;;;2.07;85.14;99472.00;4249406;33;34930;-84
2023/01/28 08:30:42;;;;;;;0.93;0.93;;;;;;;2.12;84.74;99473.78;4261814;33;34995;-82
2023/01/28 08:33:11;;;;;;;5.07;2.60;;;;;;;1.92;85.44;99479.28;4262405;33;34361;-86
2023/01/28 08:35:40;;;;;;;1.42;1.35;;;;;;;2.31;83.70;99476.00;4261893;33;32879;-72
2023/01/28 08:38:11;;;;;;;1.37;1.35;;;;;;;2.02;85.65;99483.84;4261508;33;34260;-87
2023/01/28 08:40:39;;;;;;;2.12;1.55;;;;;;;2.13;85.34;99485.81;4249192;33;34917;-88
2023/01/28 08:43:07;;;;;;;1.08;1.08;;;;;;;2.44;83.84;99483.19;4261784;33;34484;-87
2023/01/28 08:45:35;;;;;;;0.65;0.65;;;;;;;2.09;86.21;99492.56;4261786;33;33430;-86
2023/01/28 08:48:06;;;;;;;2.67;1.35;;;;;;;2.18;85.26;99491.94;4261776;33;33772;-71
2023/01/28 08:50:37;;;;;;;1.52;1.45;;;;;;;2.17;85.15;99492.75;4261760;33;34943;-88
2023/01/28 08:53:10;;;;;;;0.73;0.73;;;;;;;2.71;82.47;99497.50;4261617;33;34028;-73
2023/01/28 08:55:38;;;;;;;7.97;3.03;;;;;;;2.14;85.16;99493.56;4261966;33;33563;-86
2023/01/28 08:58:12;;;;;;;4.60;4.22;;;;;;;2.21;84.53;99497.16;4261740;33;33664;-84
2023/01/28 09:00:41;;;;;;;2.70;2.05;;;;;;;1.72;87.92;99498.44;4261698;33;35226;-80
2023/01/28 09:03:10;;;;;;;3.92;3.60;;;;;;;2.38;85.08;99495.91;4261681;33;35270;-87
2023/01/28 09:05:38;;;;;;;2.40;2.05;;;;;;;2.19;85.45;99502.25;4261673;33;33465;-88
2023/01/28 09:08:09;;;;;;;3.90;2.45;;;;;;;2.04;86.06;99509.56;4261757;33;34086;-84
2023/01/28 09:10:38;;;;;;;2.37;1.92;;;;;;;1.97;85.89;99513.66;4261708;33;35114;-88
2023/01/28 09:13:08;;;;;;;1.67;1.60;;;;;;;2.32;86.78;99512.84;4261833;33;34543;-88
2023/01/28 09:15:37;;;;;;;0.98;0.95;;;;;;;1.95;87.98;99517.91;4261707;33;32899;-87
2023/01/28 09:18:05;;;;;;;1.35;1.33;;;;;;;2.07;87.60;99515.66;4261598;33;34057;-86
2023/01/28 09:20:33;;;;;;;5.03;3.22;;;;;;;2.02;88.54;99513.81;4261469;33;35135;-72
2023/01/28 09:23:03;;;;;;;3.17;2.97;;;;;;;2.22;86.33;99517.75;4261566;33;34454;-77
2023/01/28 09:25:34;;;;;;;12.98;11.75;;;;;;;1.90;88.46;99519.47;4259133;33;33561;-88
2023/01/28 09:28:04;;;;;;;29.37;22.73;;;;;;;2.09;88.01;99521.69;4261383;33;34602;-71
2023/01/28 09:30:34;;;;;;;13.43;12.35;;;;;;;1.86;89.25;99522.78;4248484;33;35041;-76
2023/01/28 09:33:05;;;;;;;15.80;13.00;;;;;;;2.38;86.72;99526.72;4261432;33;34472;-83
2023/01/28 09:35:34;;;;;;;12.45;11.35;;;;;;;2.43;85.41;99522.53;4236673;33;31853;-70
2023/01/28 09:38:03;;;;;;;6.55;6.05;;;;;;;2.02;87.32;99530.06;4248452;33;34126;-71
2023/01/28 09:40:39;;;;;;;33.47;20.08;;;;;;;2.41;86.04;99528.50;4261285;33;34947;-70
2023/01/28 09:43:39;;;;;;;14.80;13.48;;;;;;;2.36;85.39;99525.78;4248635;33;35102;-88
2023/01/28 09:46:11;;;;;;;21.67;17.73;;;;;;;2.72;82.89;99524.97;4259980;33;32079;-71
2023/01/28 09:48:46;;;;;;;2.78;2.65;;;;;;;2.56;83.91;99517.72;4248588;33;34707;-74
2023/01/28 09:51:35;;;;;;;2.30;2.15;;;;;;;2.79;83.43;99526.00;4248375;33;34370;-75
2023/01/28 09:54:22;;;;;;;1.65;1.50;;;;;;;2.24;84.63;99521.25;4248375;33;34690;-72
2023/01/28 09:56:54;;;;;;;3.20;2.58;;;;;;;2.85;82.11;99521.84;4248296;33;33714;-71
2023/01/28 09:59:22;;;;;;;1.50;1.40;;;;;;;2.62;84.84;99523.00;4248161;33;34790;-70
2023/01/28 10:01:59;;;;;;;2.80;2.25;;;;;;;2.90;81.70;99531.38;4260832;33;35608;-77
2023/01/28 10:04:38;;;;;;;5.82;1.50;;;;;;;2.75;82.27;99519.88;4260944;33;35270;-88
2023/01/28 10:07:24;;;;;;;1.05;1.05;;;;;;;3.19;79.96;99512.34;4260667;33;34343;-71
2023/01/28 10:10:44;;;;;;;2.30;2.12;;;;;;;3.25;79.50;99514.16;4260950;33;33930;-70
2023/01/28 10:13:38;;;;;;;0.62;0.62;;;;;;;3.44;78.22;99507.66;4209971;33;35010;-77
2023/01/28 10:16:25;;;;;;;1.85;1.77;;;;;;;3.42;77.74;99514.50;4260566;33;34449;-70
2023/01/28 10:19:14;;;;;;;2.75;2.58;;;;;;;2.99;79.14;99516.16;4248099;33;33553;-70
2023/01/28 10:22:01;;;;;;;2.72;2.55;;;;;;;3.17;79.35;99513.97;4260519;33;34046;-70
2023/01/28 10:24:39;;;;;;;2.10;1.95;;;;;;;2.96;79.59;99516.06;4260809;33;35132;-70
2023/01/28 10:27:21;;;;;;;1.02;1.02;;;;;;;3.32;79.04;99510.00;4247978;33;34449;-70
2023/01/28 10:29:50;;;;;;;2.33;1.60;;;;;;;3.14;79.25;99513.94;4236122;33;32531;-71
2023/01/28 10:32:29;;;;;;;1.87;1.77;;;;;;;3.57;78.52;99507.09;4259494;33;33830;-71
2023/01/28 10:35:03;;;;;;;2.85;1.75;;;;;;;3.40;81.29;99511.03;4260738;33;34955;-70
2023/01/28 10:37:36;;;;;;;1.37;1.35;;;;;;;3.44;79.93;99512.81;4261636;33;35341;-71
2023/01/28 10:40:11;;;;;;;1.30;1.27;;;;;;;3.92;78.12;99513.78;4262247;33;34334;-70
2023/01/28 10:42:41;;;;;;;2.45;2.25;;;;;;;3.95;77.07;99512.13;4262464;33;33489;-78
2023/01/28 10:45:22;;;;;;;1.00;1.00;;;;;;;4.05;75.99;99512.28;4262646;33;35742;-71
2023/01/28 10:48:06;;;;;;;1.65;1.55;;;;;;;4.17;74.37;99517.66;4226669;33;33310;-81
2023/01/28 10:50:34;;;;;;;0.70;0.70;;;;;;;3.78;78.16;99514.38;4262693;33;33429;-73
2023/01/28 10:53:05;;;;;;;2.28;2.15;;;;;;;4.21;76.73;99521.16;4249722;33;34873;-80
2023/01/28 10:55:56;;;;;;;0.90;0.90;;;;;;;4.72;75.11;99517.72;4249670;33;34849;-73
2023/01/28 10:58:27;;;;;;;3.08;2.87;;;;;;;4.99;73.80;99519.84;4262645;33;34341;-73
2023/01/28 11:00:58;;;;;;;1.35;1.35;;;;;;;4.68;75.68;99515.94;4262398;33;33380;-70
2023/01/28 11:03:30;;;;;;;0.88;0.88;;;;;;;4.34;75.71;99512.78;4262403;33;33913;-80
2023/01/28 11:05:59;;;;;;;2.75;1.92;;;;;;;4.92;73.19;99515.44;4262553;33;35911;-71
2023/01/28 11:08:29;;;;;;;4.25;3.92;;;;;;;5.43;70.18;99518.72;4249701;33;35339;-72
2023/01/28 11:10:58;;;;;;;2.25;2.15;;;;;;;5.17;71.01;99526.13;4261464;33;34127;-71
2023/01/28 11:13:28;;;;;;;1.17;1.10;;;;;;;5.01;70.00;99523.34;4262590;33;34669;-72
2023/01/28 11:16:05;;;;;;;3.58;2.47;;;;;;;5.21;68.24;99517.59;4262496;33;35207;-74
2023/01/28 11:18:35;;;;;;;;;;;;;;;4.59;71.13;99515.78;4238973;33;33208;-71
2023/01/28 11:21:06;;;;;;;0.95;0.95;;;;;;;4.47;72.28;99511.31;4262152;33;33555;-72
2023/01/28 11:23:38;;;;;;;1.45;1.35;;;;;;;4.35;72.05;99507.66;4261115;33;33975;-80
2023/01/28 11:26:13;;;;;;;8.57;7.78;;;;;;;4.17;72.53;99509.94;4262159;33;34996;-71
2023/01/28 11:28:43;;;;;;;1.53;1.43;;;;;;;4.13;73.63;99505.56;4261168;33;34441;-81
2023/01/28 11:31:14;;;;;;;1.80;1.70;;;;;;;3.46;78.28;99499.97;4261195;33;33744;-74
2023/01/28 11:33:52;;;;;;;3.50;3.30;;;;;;;4.11;75.49;99507.25;4262182;33;33803;-80
2023/01/28 11:36:23;;;;;;;0.80;0.80;;;;;;;3.99;74.89;99503.63;4250025;33;35927;-75
2023/01/28 11:39:16;;;;;;;1.05;1.05;;;;;;;3.95;75.92;99506.97;4259249;33;33504;-70
2023/01/28 11:41:46;;;;;;;1.42;1.35;;;;;;;4.70;72.87;99498.78;4246851;33;33622;-70
2023/01/28 11:44:21;;;;;;;1.67;1.58;;;;;;;4.32;73.62;99497.31;4248063;33;33942;-70
2023/01/28 11:46:55;;;;;;;1.57;1.50;;;;;;;4.50;73.08;99503.59;4246944;33;34890;-71
2023/01/28 11:49:42;;;;;;;5.03;1.83;;;;;;;4.50;73.11;99506.19;4247664;33;34430;-70
2023/01/28 11:52:34;;;;;;;1.17;1.15;;;;;;;3.78;75.93;99501.50;4247840;33;34289;-73
2023/01/28 11:55:49;;;;;;;1.77;1.60;;;;;;;3.76;75.72;99502.31;4247601;33;34008;-69
2023/01/28 11:58:23;;;;;;;4.57;2.40;;;;;;;4.17;73.83;99497.91;4235483;33;35945;-76
2023/01/28 12:01:02;;;;;;;1.58;1.52;;;;;;;3.79;75.55;99494.62;4232651;33;34473;-71
2023/01/28 12:03:42;;;;;;;3.95;2.40;;;;;;;3.94;76.14;99497.50;4245988;33;33571;-80
2023/01/28 12:06:23;;;;;;;0.95;0.95;;;;;;;3.77;77.07;99491.16;4246685;33;33873;-70
2023/01/28 12:09:17;;;;;;;2.78;2.58;;;;;;;4.01;75.03;99500.19;4247866;33;35940;-69
2023/01/28 12:12:24;;;;;;;2.10;2.00;;;;;;;4.21;74.06;99487.66;4247769;33;34544;-74
2023/01/28 12:15:37;;;;;;;1.50;1.40;;;;;;;3.83;75.64;99486.16;4247488;33;33112;-69
2023/01/28 12:18:34;;;;;;;0.85;0.85;;;;;;;4.18;74.04;99491.94;4231541;33;33900;-74
2023/01/28 12:21:08;;;;;;;0.77;0.77;;;;;;;3.95;74.40;99485.47;4247201;33;34886;-71
2023/01/28 12:24:08;;;;;;;3.00;2.80;;;;;;;3.90;75.01;99482.84;4247565;33;34506;-69
2023/01/28 12:26:44;;;;;;;2.25;2.05;;;;;;;3.54;76.63;99483.84;4246699;33;33237;-71
2023/01/28 12:29:24;;;;;;;1.30;1.17;;;;;;;3.58;77.93;99483.09;4247938;33;34729;-71
2023/01/28 12:32:27;;;;;;;1.52;1.42;;;;;;;3.72;77.23;99488.50;4247373;33;33982;-75
2023/01/28 12:35:17;;;;;;;0.60;0.60;;;;;;;4.12;75.98;99481.50;4247293;33;34109;-74
2023/01/28 12:38:02;;;;;;;1.00;1.00;;;;;;;3.80;75.77;99484.38;4247114;33;31938;-74
2023/01/28 12:40:44;;;;;;;0.95;0.95;;;;;;;3.95;75.23;99483.78;4247152;33;33868;-76
2023/01/28 12:43:20;;;;;;;0.60;0.60;;;;;;;3.78;76.63;99486.03;4235659;33;35047;-75